Time;durP1;ratioP1;P1;durP2;ratioP2;P2;SDS_P1;SDS_P2;PMS_P1;PMS_P2;Temp;Humidity;BMP_temperature;BMP_pressure;BME280_temperature;BME280_humidity;BME280_pressure;Samples;Min_cycle;Max_cycle;Signal;HPM_P1;HPM_P2
2023/04/09 05:02:38;;;;;;;16.10;11.65;;;7.20;99.90;;;;;;5348448;23;20055;-74
2023/04/09 05:05:18;;;;;;;16.13;12.30;;;7.10;99.90;;;;;;4960386;29;20055;-74
2023/04/09 05:07:49;;;;;;;17.08;12.27;;;7.10;99.90;;;;;;4959719;29;20103;-74
2023/04/09 05:10:15;;;;;;;17.77;12.63;;;7.00;99.90;;;;;;4952346;29;20036;-74
2023/04/09 05:12:45;;;;;;;15.32;11.50;;;7.10;99.90;;;;;;4940550;29;20229;-73
2023/04/09 05:15:18;;;;;;;16.48;12.07;;;7.20;99.90;;;;;;4936998;29;20035;-72
2023/04/09 05:17:47;;;;;;;18.27;12.60;;;7.20;99.90;;;;;;4940351;29;20297;-74
2023/04/09 05:20:17;;;;;;;16.85;12.13;;;7.20;99.90;;;;;;4956793;29;20028;-72
2023/04/09 05:23:04;;;;;;;16.88;12.43;;;7.20;99.90;;;;;;4925438;29;20027;-72
2023/04/09 05:25:38;;;;;;;16.50;11.77;;;7.30;99.90;;;;;;4924588;29;20031;-72
2023/04/09 05:28:05;;;;;;;16.95;11.93;;;7.30;99.90;;;;;;4924699;29;20020;-72
2023/04/09 05:30:35;;;;;;;18.33;12.50;;;7.30;99.90;;;;;;4909081;29;20051;-73
2023/04/09 05:33:03;;;;;;;;;;;7.40;99.90;;;;;;4925134;29;20099;-72
2023/04/09 05:35:29;;;;;;;16.98;12.13;;;7.50;99.90;;;;;;4929249;29;19906;-73
2023/04/09 05:38:14;;;;;;;15.88;11.60;;;7.60;99.90;;;;;;4944497;29;20047;-72
2023/04/09 05:41:13;;;;;;;16.23;10.98;;;7.60;99.90;;;;;;4865076;29;20218;-72
2023/04/09 05:43:50;;;;;;;13.77;10.45;;;7.70;99.90;;;;;;4942861;29;20062;-73
2023/04/09 05:46:16;;;;;;;14.70;11.00;;;7.80;99.90;;;;;;4943988;29;20096;-73
2023/04/09 05:48:43;;;;;;;14.43;11.00;;;7.80;99.90;;;;;;4943338;29;20028;-72
2023/04/09 05:51:09;;;;;;;15.60;10.68;;;7.90;99.90;;;;;;4943749;29;20045;-73
2023/04/09 05:53:36;;;;;;;13.57;10.52;;;7.90;99.90;;;;;;4943310;29;20054;-72
2023/04/09 05:56:11;;;;;;;15.13;10.77;;;8.00;99.90;;;;;;4944686;29;20028;-72
2023/04/09 05:58:45;;;;;;;15.25;10.52;;;8.10;99.90;;;;;;4943184;29;20337;-73
2023/04/09 06:01:10;;;;;;;12.10;10.02;;;8.30;99.90;;;;;;4942966;29;20031;-72
2023/04/09 06:03:36;;;;;;;13.25;10.23;;;8.40;99.90;;;;;;4928001;29;20060;-72
2023/04/09 06:06:17;;;;;;;14.45;10.90;;;8.60;99.90;;;;;;4905540;29;20352;-72
2023/04/09 06:08:43;;;;;;;14.32;10.98;;;8.70;99.90;;;;;;4908768;29;20322;-74
2023/04/09 06:11:10;;;;;;;14.35;9.75;;;8.80;99.90;;;;;;4910094;29;20029;-73
2023/04/09 06:13:37;;;;;;;13.43;10.10;;;8.80;99.90;;;;;;4909766;29;20099;-74
2023/04/09 06:16:07;;;;;;;12.02;9.45;;;8.90;99.90;;;;;;4909468;29;20311;-73
2023/04/09 06:18:33;;;;;;;13.95;9.80;;;9.10;99.90;;;;;;4910049;29;20091;-73
2023/04/09 06:21:03;;;;;;;12.90;9.63;;;9.10;99.90;;;;;;4924900;29;20341;-73
2023/04/09 06:23:29;;;;;;;12.02;8.90;;;9.20;99.90;;;;;;4909471;29;20036;-73
2023/04/09 06:25:57;;;;;;;14.20;9.90;;;9.10;99.90;;;;;;4908866;29;20028;-73
2023/04/09 06:28:23;;;;;;;13.95;10.18;;;9.20;99.90;;;;;;4910729;29;20125;-73
2023/04/09 06:31:00;;;;;;;14.57;10.43;;;9.10;99.90;;;;;;4909577;29;20044;-73
2023/04/09 06:33:26;;;;;;;14.02;9.60;;;9.10;99.90;;;;;;4908918;29;20044;-73
2023/04/09 06:35:52;;;;;;;16.33;10.60;;;9.10;99.90;;;;;;4909395;29;20263;-73
2023/04/09 06:38:24;;;;;;;13.35;10.32;;;9.00;99.90;;;;;;4908930;29;20079;-73
2023/04/09 06:40:50;;;;;;;14.27;10.30;;;9.00;99.90;;;;;;4928426;29;20051;-73
2023/04/09 06:43:19;;;;;;;15.30;10.88;;;9.00;99.90;;;;;;4928736;29;20120;-73
2023/04/09 06:46:01;;;;;;;15.10;10.27;;;9.10;99.90;;;;;;4927363;29;20086;-73
2023/04/09 06:48:27;;;;;;;13.43;10.00;;;9.10;99.90;;;;;;4943461;29;20040;-74
2023/04/09 06:51:08;;;;;;;13.18;9.18;;;9.20;99.90;;;;;;4928188;29;20042;-73
2023/04/09 06:53:37;;;;;;;14.30;9.68;;;9.30;99.90;;;;;;4927965;29;20028;-72
2023/04/09 06:56:06;;;;;;;12.55;9.23;;;9.20;99.90;;;;;;4928842;29;20036;-73
2023/04/09 06:58:32;;;;;;;12.68;9.52;;;9.30;99.90;;;;;;4928377;29;20031;-73
2023/04/09 07:00:58;;;;;;;14.23;10.00;;;9.30;99.90;;;;;;4928437;29;20032;-73
2023/04/09 07:03:28;;;;;;;13.35;9.38;;;9.40;99.90;;;;;;4927955;29;20119;-72
2023/04/09 07:06:09;;;;;;;13.77;9.90;;;9.40;99.90;;;;;;4928093;29;20028;-74
2023/04/09 07:08:42;;;;;;;14.23;9.65;;;9.50;99.90;;;;;;4926810;29;20024;-73
2023/04/09 07:11:11;;;;;;;13.35;9.63;;;9.60;99.90;;;;;;4927931;29;20036;-73
2023/04/09 07:13:47;;;;;;;12.25;8.45;;;9.50;99.90;;;;;;4926488;29;20115;-73
2023/04/09 07:16:13;;;;;;;11.02;8.05;;;9.70;99.90;;;;;;4928600;29;20092;-73
2023/04/09 07:21:41;;;;;;;9.55;6.75;;;10.00;99.90;;;;;;4907290;29;20055;-73
2023/04/09 07:24:07;;;;;;;10.38;7.53;;;10.10;99.90;;;;;;4891307;29;20080;-73
2023/04/09 07:26:33;;;;;;;11.65;8.20;;;10.30;99.90;;;;;;4907169;29;20228;-73
2023/04/09 07:28:59;;;;;;;11.95;8.05;;;10.40;99.90;;;;;;4907569;29;20037;-74
2023/04/09 07:31:25;;;;;;;9.70;7.40;;;10.50;99.90;;;;;;4891808;29;20073;-73
2023/04/09 07:34:18;;;;;;;10.95;7.80;;;10.50;99.70;;;;;;4924658;29;20237;-74
2023/04/09 07:36:55;;;;;;;11.88;7.90;;;10.60;99.20;;;;;;4926052;29;20051;-75
2023/04/09 07:39:25;;;;;;;11.55;8.07;;;10.60;98.70;;;;;;4942431;29;20032;-74
2023/04/09 07:41:51;;;;;;;10.32;7.50;;;10.50;98.30;;;;;;4941982;29;20044;-73
2023/04/09 07:44:17;;;;;;;10.13;7.18;;;10.50;98.10;;;;;;4928255;29;20091;-73
2023/04/09 07:46:58;;;;;;;9.80;7.63;;;10.60;97.90;;;;;;4925957;29;20123;-72
2023/04/09 07:49:24;;;;;;;12.68;8.13;;;10.60;98.10;;;;;;4942372;29;20040;-74
2023/04/09 07:52:18;;;;;;;11.52;8.15;;;10.60;98.60;;;;;;4941897;29;20055;-73
2023/04/09 07:54:59;;;;;;;10.82;7.35;;;10.50;99.00;;;;;;4937089;29;20048;-73
2023/04/09 07:57:26;;;;;;;12.10;7.82;;;10.40;99.00;;;;;;4942306;29;20032;-72
2023/04/09 08:00:19;;;;;;;10.27;7.55;;;10.50;98.90;;;;;;4941482;29;20059;-72
2023/04/09 08:02:51;;;;;;;9.50;6.78;;;10.90;98.10;;;;;;4920729;29;20115;-72
2023/04/09 08:05:45;;;;;;;9.18;6.30;;;11.30;97.30;;;;;;4925119;29;20035;-72
2023/04/09 08:08:20;;;;;;;8.00;5.70;;;11.80;95.40;;;;;;4926365;29;20203;-72
2023/04/09 08:10:46;;;;;;;7.15;5.35;;;12.00;94.90;;;;;;4941875;29;20032;-72
2023/04/09 08:13:21;;;;;;;9.85;6.60;;;12.10;94.40;;;;;;4939333;29;20039;-73
2023/04/09 08:15:50;;;;;;;8.27;6.05;;;12.20;94.30;;;;;;4926582;29;20044;-72
2023/04/09 08:18:28;;;;;;;8.90;6.20;;;12.00;94.70;;;;;;4927014;29;20028;-72
2023/04/09 08:21:16;;;;;;;9.27;5.97;;;11.80;95.10;;;;;;4940722;29;20044;-73
2023/04/09 08:23:58;;;;;;;9.00;6.38;;;11.90;94.60;;;;;;4924977;29;20080;-72
2023/04/09 08:26:31;;;;;;;8.57;6.55;;;11.90;94.50;;;;;;4942442;29;20207;-73
2023/04/09 08:29:04;;;;;;;9.15;6.22;;;11.90;94.20;;;;;;4926083;29;20036;-72
2023/04/09 08:31:30;;;;;;;8.13;5.75;;;12.10;94.20;;;;;;4925793;29;20020;-71
2023/04/09 08:34:16;;;;;;;7.32;5.80;;;12.20;93.90;;;;;;4926374;29;20222;-73
2023/04/09 08:36:45;;;;;;;8.13;6.03;;;12.40;93.60;;;;;;4925983;29;20085;-74
2023/04/09 08:39:11;;;;;;;7.90;5.68;;;12.40;93.00;;;;;;4941382;29;20028;-72
2023/04/09 08:41:49;;;;;;;8.23;6.22;;;12.50;93.10;;;;;;4925921;29;20032;-72
2023/04/09 08:44:29;;;;;;;8.25;6.05;;;12.60;92.00;;;;;;4910068;29;20047;-73
2023/04/09 08:46:55;;;;;;;8.07;6.20;;;12.60;91.10;;;;;;4926320;29;20058;-73
2023/04/09 08:49:27;;;;;;;8.02;6.40;;;12.40;90.80;;;;;;4909713;29;20024;-73
2023/04/09 08:52:03;;;;;;;9.82;6.78;;;12.20;91.20;;;;;;4925208;29;20024;-73
2023/04/09 08:57:39;;;;;;;8.45;6.55;;;12.10;91.00;;;;;;4880380;29;20245;-73
2023/04/09 09:00:22;;;;;;;9.98;6.97;;;12.40;91.00;;;;;;4905639;29;20108;-73
2023/04/09 09:03:07;;;;;;;7.72;5.38;;;12.50;91.00;;;;;;4904491;29;20040;-71
2023/04/09 09:05:48;;;;;;;7.80;5.65;;;12.50;91.60;;;;;;4907712;29;20031;-73
2023/04/09 09:08:25;;;;;;;8.40;5.50;;;12.70;90.90;;;;;;4907444;29;20028;-73
2023/04/09 09:10:50;;;;;;;8.55;5.70;;;12.60;90.70;;;;;;4906927;29;20080;-73
2023/04/09 09:13:38;;;;;;;9.40;6.70;;;12.40;91.10;;;;;;4906380;29;20139;-72
2023/04/09 09:16:52;;;;;;;9.52;7.38;;;12.20;90.80;;;;;;4906787;29;20318;-74
2023/04/09 09:19:43;;;;;;;10.45;7.22;;;12.50;90.50;;;;;;4905827;29;20080;-75
2023/04/09 09:22:47;;;;;;;9.77;7.00;;;12.70;90.30;;;;;;4906233;29;20028;-73
2023/04/09 09:25:23;;;;;;;9.52;6.90;;;12.60;89.20;;;;;;4905773;29;20043;-72
2023/04/09 09:27:49;;;;;;;8.10;6.35;;;12.40;89.70;;;;;;4921218;29;20055;-74
2023/04/09 09:30:24;;;;;;;7.18;5.30;;;12.70;90.40;;;;;;4920387;29;20040;-73
2023/04/09 09:32:53;;;;;;;7.22;5.05;;;13.00;89.70;;;;;;4905543;29;20048;-73
2023/04/09 09:35:21;;;;;;;7.30;5.63;;;13.20;89.20;;;;;;4905241;29;20045;-73
2023/04/09 09:38:15;;;;;;;9.00;6.13;;;13.60;88.90;;;;;;4906724;29;20037;-75
2023/04/09 09:43:54;;;;;;;10.63;7.07;;;13.80;83.80;;;;;;4909985;29;20246;-75
2023/04/09 09:46:33;;;;;;;8.82;6.72;;;13.60;83.90;;;;;;4910032;29;20362;-74
2023/04/09 09:49:20;;;;;;;8.32;6.55;;;13.40;84.80;;;;;;4911137;29;20028;-74
2023/04/09 09:52:09;;;;;;;10.85;7.40;;;13.50;84.70;;;;;;4910435;29;20322;-74
2023/04/09 09:54:51;;;;;;;9.20;6.95;;;13.30;85.50;;;;;;4900877;29;20036;-73
2023/04/09 10:01:52;;;;;;;8.45;6.28;;;13.10;84.90;;;;;;4870867;29;20083;-73
2023/04/09 10:04:29;;;;;;;8.00;6.43;;;13.00;84.80;;;;;;4794750;29;20239;-73
2023/04/09 10:07:03;;;;;;;8.05;5.68;;;13.40;83.70;;;;;;4852534;29;20038;-73
2023/04/09 10:10:13;;;;;;;8.80;6.72;;;13.60;82.60;;;;;;4852177;29;20084;-73
2023/04/09 10:13:04;;;;;;;6.95;5.72;;;13.60;82.40;;;;;;4853012;29;20288;-72
2023/04/09 10:15:44;;;;;;;;;;;13.50;82.60;;;;;;4843099;29;20056;-74
2023/04/09 10:18:17;;;;;;;7.13;5.55;;;13.70;80.90;;;;;;4890687;29;19908;-71
2023/04/09 10:21:15;;;;;;;6.05;4.93;;;13.40;80.70;;;;;;4906062;29;20349;-71
2023/04/09 10:24:04;;;;;;;6.40;4.50;;;13.30;79.40;;;;;;4890030;29;20052;-73
2023/04/09 10:27:17;;;;;;;5.63;4.28;;;13.40;79.90;;;;;;4905098;29;20053;-73
2023/04/09 10:29:55;;;;;;;6.40;4.30;;;13.60;80.20;;;;;;4906058;29;20044;-73
2023/04/09 10:32:26;;;;;;;5.82;4.30;;;13.70;77.90;;;;;;4890362;29;20149;-74
2023/04/09 10:34:59;;;;;;;5.75;4.25;;;13.80;77.10;;;;;;4905207;29;20072;-74
2023/04/09 10:37:30;;;;;;;4.97;3.88;;;13.80;77.80;;;;;;4907803;29;20289;-72
2023/04/09 10:39:56;;;;;;;5.28;4.10;;;13.80;76.10;;;;;;4890841;29;20342;-75
2023/04/09 10:42:49;;;;;;;5.25;3.92;;;14.00;75.00;;;;;;4906030;29;20163;-75
2023/04/09 10:45:52;;;;;;;5.40;3.90;;;13.90;74.00;;;;;;4890976;29;20040;-74
2023/04/09 10:48:29;;;;;;;4.72;3.35;;;14.10;73.80;;;;;;4874601;29;20029;-73
2023/04/09 10:51:20;;;;;;;4.93;3.78;;;14.00;73.70;;;;;;4890811;29;20037;-74
2023/04/09 10:53:53;;;;;;;5.80;4.63;;;14.10;73.70;;;;;;4890121;29;20044;-74
2023/04/09 10:56:27;;;;;;;4.90;3.55;;;14.40;74.30;;;;;;4890997;29;20033;-74
2023/04/09 10:58:56;;;;;;;4.82;3.65;;;14.80;73.30;;;;;;4905091;29;20071;-75
2023/04/09 11:01:51;;;;;;;4.72;3.58;;;14.90;72.30;;;;;;4904425;29;20258;-74
2023/04/09 11:04:52;;;;;;;5.22;3.85;;;15.10;72.40;;;;;;4926519;29;20036;-75
2023/04/09 11:07:24;;;;;;;5.18;3.40;;;15.30;70.40;;;;;;4911860;29;20024;-72
2023/04/09 11:09:58;;;;;;;4.72;3.58;;;15.40;71.00;;;;;;4926756;29;20035;-72
2023/04/09 11:12:33;;;;;;;4.43;3.50;;;15.50;70.60;;;;;;4927452;29;20087;-72
2023/04/09 11:15:21;;;;;;;4.22;3.35;;;16.00;69.40;;;;;;4927317;29;20047;-72
2023/04/09 11:18:13;;;;;;;4.78;3.53;;;16.40;68.90;;;;;;4928262;29;20028;-72
2023/04/09 11:20:42;;;;;;;4.07;3.25;;;16.70;67.40;;;;;;4927057;29;20032;-73
2023/04/09 11:26:34;;;;;;;4.35;3.60;;;17.80;64.40;;;;;;4928173;29;20340;-74
2023/04/09 11:29:21;;;;;;;5.30;3.78;;;19.00;63.40;;;;;;4927790;29;20039;-75
2023/04/09 11:31:47;;;;;;;5.20;4.50;;;19.00;62.30;;;;;;4928217;29;20322;-74
2023/04/09 11:34:27;;;;;;;4.32;3.40;;;18.60;62.40;;;;;;4927510;29;20035;-74
2023/04/09 11:37:24;;;;;;;4.45;3.55;;;18.90;61.10;;;;;;4927959;29;20031;-73
2023/04/09 11:39:56;;;;;;;3.65;3.03;;;19.00;61.70;;;;;;4926092;29;20233;-75
2023/04/09 11:42:29;;;;;;;4.28;3.60;;;19.90;60.70;;;;;;4927947;29;20346;-74
2023/04/09 11:45:24;;;;;;;3.80;3.40;;;21.70;58.20;;;;;;4921637;29;20055;-73
2023/04/09 11:51:38;;;;;;;4.22;3.60;;;21.30;56.60;;;;;;4927836;29;20034;-72
2023/04/09 11:54:44;;;;;;;4.00;3.40;;;21.80;57.00;;;;;;4927195;29;20040;-73
2023/04/09 11:57:50;;;;;;;3.35;2.67;;;22.30;55.30;;;;;;4926690;29;20035;-73
2023/04/09 12:01:09;;;;;;;3.95;3.25;;;23.20;53.10;;;;;;4926312;29;20040;-73
2023/04/09 12:16:20;;;;;;;3.83;3.13;;;22.30;53.00;;;;;;4944469;29;20028;-73
2023/04/09 12:19:23;;;;;;;3.35;2.78;;;22.40;52.80;;;;;;4944997;29;20023;-72
2023/04/09 12:21:57;;;;;;;3.55;3.00;;;22.70;52.80;;;;;;4939418;29;20040;-73
2023/04/09 12:24:32;;;;;;;4.25;3.65;;;23.00;52.40;;;;;;4946035;29;20031;-71
2023/04/09 12:26:58;;;;;;;3.88;3.10;;;22.80;52.00;;;;;;4944288;29;20035;-73
2023/04/09 12:29:28;;;;;;;3.50;2.97;;;23.40;51.70;;;;;;4944964;29;20051;-73
2023/04/09 12:32:39;;;;;;;3.90;3.05;;;24.20;50.50;;;;;;4944558;29;20090;-72
2023/04/09 12:35:11;;;;;;;3.83;3.22;;;25.00;49.50;;;;;;4943382;29;20312;-72
2023/04/09 12:37:55;;;;;;;3.83;3.20;;;25.00;49.60;;;;;;4945708;29;20087;-74
2023/04/09 12:40:25;;;;;;;3.55;2.80;;;25.30;51.00;;;;;;4944595;29;20032;-72
2023/04/09 12:46:01;;;;;;;3.75;3.10;;;24.00;49.40;;;;;;4867909;29;20112;-72
2023/04/09 12:49:17;;;;;;;3.90;2.88;;;24.20;48.90;;;;;;4868844;29;20362;-74
2023/04/09 12:51:52;;;;;;;3.88;3.38;;;22.70;50.60;;;;;;4868835;29;20076;-74
2023/04/09 12:54:20;;;;;;;3.50;2.90;;;21.80;52.90;;;;;;4852741;29;20044;-73
2023/04/09 12:56:49;;;;;;;3.47;2.83;;;22.90;52.00;;;;;;4853553;29;20082;-75
2023/04/09 12:59:16;;;;;;;3.50;2.85;;;24.50;49.80;;;;;;4868011;29;20111;-72
2023/04/09 13:01:54;;;;;;;3.72;3.05;;;25.50;48.00;;;;;;4868094;29;20100;-74
2023/04/09 13:04:35;;;;;;;3.10;2.58;;;25.60;47.40;;;;;;4935619;29;20063;-72
2023/04/09 13:07:33;;;;;;;2.97;2.58;;;25.80;47.00;;;;;;4942481;29;20225;-73
2023/04/09 13:10:02;;;;;;;3.30;3.00;;;26.10;47.60;;;;;;4943970;29;20178;-74
2023/04/09 13:12:31;;;;;;;3.00;2.60;;;26.30;46.70;;;;;;4945406;29;20094;-74
2023/04/09 13:15:45;;;;;;;3.15;2.60;;;27.60;45.60;;;;;;4944639;29;20331;-74
2023/04/09 13:18:25;;;;;;;3.05;2.30;;;27.00;45.90;;;;;;4900954;29;20115;-73
2023/04/09 13:21:03;;;;;;;2.92;2.55;;;28.20;45.60;;;;;;4945261;29;20035;-73
2023/04/09 13:23:28;;;;;;;3.17;2.33;;;27.20;44.70;;;;;;4945070;29;20098;-72
2023/04/09 13:26:06;;;;;;;3.53;2.60;;;26.90;45.10;;;;;;4945174;29;20027;-74
2023/04/09 13:31:36;;;;;;;2.80;2.45;;;26.80;44.80;;;;;;4935168;29;20051;-72
2023/04/09 13:34:27;;;;;;;3.03;2.33;;;27.20;45.30;;;;;;4944504;29;20100;-72
2023/04/09 13:36:53;;;;;;;3.70;3.00;;;28.00;44.70;;;;;;4944945;29;20031;-73
2023/04/09 13:39:27;;;;;;;2.90;2.40;;;27.60;44.20;;;;;;4943739;29;20094;-75
2023/04/09 13:42:15;;;;;;;3.65;2.88;;;27.00;44.40;;;;;;4944869;29;20057;-74
2023/04/09 13:44:43;;;;;;;3.20;2.70;;;26.90;44.90;;;;;;4944936;29;20135;-73
2023/04/09 13:47:14;;;;;;;3.13;2.80;;;27.50;44.30;;;;;;4942056;29;20047;-73
2023/04/09 13:49:41;;;;;;;3.33;2.50;;;27.90;43.50;;;;;;4943853;29;20043;-73
2023/04/09 13:52:13;;;;;;;3.75;2.67;;;28.00;44.00;;;;;;4943436;29;20039;-73
2023/04/09 13:54:39;;;;;;;3.63;2.65;;;29.30;43.90;;;;;;4944927;29;20313;-74
2023/04/09 13:57:14;;;;;;;3.50;2.65;;;30.90;42.50;;;;;;4939672;29;20107;-74
2023/04/09 13:59:45;;;;;;;2.63;2.20;;;30.10;42.00;;;;;;4944992;29;20349;-73
2023/04/09 14:02:30;;;;;;;3.05;2.30;;;31.10;42.60;;;;;;4943918;29;20070;-73
2023/04/09 14:05:02;;;;;;;2.97;2.60;;;31.20;40.90;;;;;;4944471;29;20039;-73
2023/04/09 14:07:48;;;;;;;3.40;2.70;;;31.10;41.20;;;;;;4944815;29;20031;-74
2023/04/09 14:10:17;;;;;;;2.88;2.55;;;30.80;40.90;;;;;;4943173;29;20036;-73
2023/04/09 14:12:46;;;;;;;3.20;2.85;;;29.10;42.00;;;;;;4944778;29;20314;-73
2023/04/09 14:15:35;;;;;;;3.40;2.60;;;29.10;41.70;;;;;;4903707;29;20031;-73
2023/04/09 14:18:04;;;;;;;3.50;2.90;;;28.90;42.00;;;;;;4904502;29;20044;-74
2023/04/09 14:20:33;;;;;;;3.25;2.92;;;28.60;41.70;;;;;;4918318;29;20103;-73
2023/04/09 14:22:59;;;;;;;3.20;2.42;;;28.10;42.00;;;;;;4942992;29;20312;-74
2023/04/09 14:25:28;;;;;;;3.65;2.83;;;27.90;42.30;;;;;;4944685;29;20198;-74
2023/04/09 14:27:57;;;;;;;4.50;3.88;;;28.10;42.90;;;;;;4944706;29;20046;-74
2023/04/09 14:30:30;;;;;;;4.03;3.33;;;29.20;42.00;;;;;;4931643;29;20111;-73
2023/04/09 14:33:20;;;;;;;3.60;3.13;;;30.50;42.00;;;;;;4948039;29;20095;-73
2023/04/09 14:35:55;;;;;;;3.90;3.28;;;30.30;41.50;;;;;;4931400;29;20028;-73
2023/04/09 14:38:23;;;;;;;3.35;2.90;;;29.40;41.70;;;;;;4962316;29;20039;-73
2023/04/09 14:40:55;;;;;;;3.28;2.85;;;29.40;41.90;;;;;;4947909;29;20031;-73
2023/04/09 14:43:21;;;;;;;4.10;3.20;;;27.70;41.70;;;;;;4947365;29;20051;-74
2023/04/09 14:45:47;;;;;;;3.72;3.13;;;26.00;43.60;;;;;;4946887;29;20038;-74
2023/04/09 14:48:38;;;;;;;3.47;2.70;;;24.40;45.40;;;;;;4947796;29;20203;-73
2023/04/09 14:51:14;;;;;;;4.03;3.17;;;23.40;46.00;;;;;;4945992;29;20167;-73
2023/04/09 14:53:39;;;;;;;4.13;3.10;;;21.70;47.40;;;;;;4947834;29;20035;-74
2023/04/09 14:56:17;;;;;;;4.55;3.40;;;21.20;49.00;;;;;;4946356;29;20020;-73
2023/04/09 14:58:42;;;;;;;4.32;3.50;;;20.90;50.00;;;;;;4947634;29;20035;-73
2023/04/09 15:01:11;;;;;;;5.47;3.90;;;20.40;50.20;;;;;;4945773;29;20060;-73
2023/04/09 15:03:36;;;;;;;4.68;3.30;;;21.90;49.80;;;;;;4947006;29;20078;-74
2023/04/09 15:06:52;;;;;;;5.50;4.55;;;24.60;47.80;;;;;;4947109;29;20024;-75
2023/04/09 15:09:20;;;;;;;5.40;3.50;;;24.90;45.90;;;;;;4946958;29;20221;-72
2023/04/09 15:11:47;;;;;;;4.78;3.58;;;24.50;46.80;;;;;;4947077;29;20118;-73
2023/04/09 15:14:16;;;;;;;4.03;2.95;;;23.60;47.80;;;;;;4945081;29;20039;-75
2023/04/09 15:16:54;;;;;;;5.82;3.40;;;22.70;48.20;;;;;;4947522;29;20067;-71
2023/04/09 15:19:23;;;;;;;4.97;3.80;;;22.10;49.20;;;;;;4947068;29;20067;-72
2023/04/09 15:21:55;;;;;;;4.95;3.50;;;21.40;49.40;;;;;;4946272;29;20106;-72
2023/04/09 15:24:21;;;;;;;4.38;3.30;;;21.00;50.90;;;;;;4944227;29;20329;-73
2023/04/09 15:26:52;;;;;;;4.95;3.45;;;20.40;50.00;;;;;;4948166;29;20091;-74
2023/04/09 15:29:26;;;;;;;4.72;3.17;;;21.00;49.80;;;;;;4945479;29;20031;-73
2023/04/09 15:31:52;;;;;;;;;;;22.10;48.60;;;;;;4947510;29;20036;-73
2023/04/09 15:37:15;;;;;;;3.50;2.80;;;26.60;46.70;;;;;;4946567;29;20318;-71
2023/04/09 15:39:43;;;;;;;4.93;3.80;;;28.60;42.40;;;;;;4946529;29;20028;-72
2023/04/09 15:42:09;;;;;;;4.40;3.60;;;27.90;41.80;;;;;;4945014;29;20344;-72
2023/04/09 15:44:35;;;;;;;4.47;3.72;;;24.60;44.50;;;;;;4943462;29;20040;-74
2023/04/09 15:47:01;;;;;;;5.35;4.22;;;22.40;46.70;;;;;;4944859;29;20046;-73
2023/04/09 15:49:33;;;;;;;5.90;4.32;;;20.80;49.20;;;;;;4946398;29;20028;-73
2023/04/09 15:51:58;;;;;;;6.93;5.10;;;19.60;51.10;;;;;;4946463;29;20039;-72
2023/04/09 15:54:24;;;;;;;5.88;4.18;;;19.10;52.10;;;;;;4945680;29;20274;-73
2023/04/09 15:56:57;;;;;;;6.03;4.03;;;19.20;52.90;;;;;;4945271;29;20245;-74
2023/04/09 15:59:26;;;;;;;6.47;4.82;;;19.50;52.00;;;;;;4945777;29;20036;-72
2023/04/09 16:01:54;;;;;;;5.93;4.38;;;21.00;50.30;;;;;;4946379;29;20036;-72
2023/04/09 16:04:30;;;;;;;5.68;4.07;;;22.90;48.10;;;;;;4935531;29;20052;-72
2023/04/09 16:07:00;;;;;;;4.53;3.47;;;24.70;46.50;;;;;;4945530;29;20042;-74
2023/04/09 16:09:29;;;;;;;4.28;3.33;;;26.30;44.20;;;;;;4945797;29;20048;-73
2023/04/09 16:11:54;;;;;;;3.95;3.20;;;26.60;43.50;;;;;;4946457;29;20052;-74
2023/04/09 16:14:32;;;;;;;4.45;3.90;;;27.30;43.10;;;;;;4945566;29;20127;-73
2023/04/09 16:20:30;;;;;;;4.97;4.03;;;25.40;43.80;;;;;;4926212;29;20249;-74
2023/04/09 16:23:00;;;;;;;5.00;4.13;;;26.20;43.60;;;;;;4943307;29;20297;-74
2023/04/09 16:25:51;;;;;;;4.68;3.80;;;26.30;43.70;;;;;;4945373;29;20034;-72
2023/04/09 16:28:19;;;;;;;4.57;3.58;;;26.30;43.60;;;;;;4945552;29;20150;-73
2023/04/09 16:31:19;;;;;;;4.35;3.53;;;26.90;43.70;;;;;;4944148;29;20035;-74
2023/04/09 16:33:48;;;;;;;3.90;3.20;;;26.80;42.90;;;;;;4926426;29;20043;-73
2023/04/09 16:36:17;;;;;;;4.47;3.40;;;27.00;43.30;;;;;;4945381;29;20035;-72
2023/04/09 16:39:02;;;;;;;4.03;3.33;;;26.50;43.70;;;;;;4945589;29;20020;-74
2023/04/09 16:41:31;;;;;;;4.82;3.78;;;26.50;43.20;;;;;;4945759;29;20054;-72
2023/04/09 16:43:57;;;;;;;5.13;4.18;;;26.30;43.20;;;;;;4945519;29;20039;-73
2023/04/09 16:46:32;;;;;;;5.10;4.00;;;26.10;43.60;;;;;;4945175;29;20042;-72
2023/04/09 16:49:01;;;;;;;4.70;3.58;;;25.70;43.80;;;;;;4945703;29;20265;-73
2023/04/09 16:51:26;;;;;;;4.70;3.90;;;25.10;43.90;;;;;;4944620;29;20032;-74
2023/04/09 16:53:52;;;;;;;4.10;3.50;;;25.20;44.80;;;;;;4945635;29;20034;-73
2023/04/09 16:56:21;;;;;;;3.72;2.80;;;25.90;43.80;;;;;;4945207;29;20229;-74
2023/04/09 16:58:57;;;;;;;4.60;3.47;;;25.70;43.70;;;;;;4945637;29;20027;-74
2023/04/09 17:01:22;;;;;;;4.60;3.47;;;24.60;44.20;;;;;;4944891;29;20305;-73
2023/04/09 17:03:48;;;;;;;4.20;3.20;;;24.00;46.20;;;;;;4945253;29;20068;-73
2023/04/09 17:06:14;;;;;;;4.18;3.38;;;24.40;45.10;;;;;;4944150;29;20040;-72
2023/04/09 17:08:40;;;;;;;3.97;3.15;;;24.40;45.60;;;;;;4945522;29;20029;-73
2023/04/09 17:11:05;;;;;;;4.00;3.10;;;24.00;46.10;;;;;;4945552;29;20313;-73
2023/04/09 17:13:34;;;;;;;3.88;3.25;;;23.30;46.10;;;;;;4944233;29;20028;-73
2023/04/09 17:16:01;;;;;;;4.22;2.95;;;22.40;47.40;;;;;;4944844;29;20032;-73
2023/04/09 17:18:31;;;;;;;4.65;3.60;;;21.20;48.50;;;;;;4945167;29;20333;-72
2023/04/09 17:20:58;;;;;;;4.20;3.30;;;20.10;49.70;;;;;;4945381;29;20314;-73
2023/04/09 17:23:26;;;;;;;5.53;3.33;;;19.30;51.90;;;;;;4944481;29;20032;-74
2023/04/09 17:25:57;;;;;;;5.88;3.55;;;18.90;52.50;;;;;;4945228;29;20038;-73
2023/04/09 17:28:23;;;;;;;4.88;3.10;;;18.40;53.60;;;;;;4944942;29;20273;-74
2023/04/09 17:31:01;;;;;;;5.25;3.65;;;18.20;54.30;;;;;;4945123;29;20076;-75
2023/04/09 17:33:27;;;;;;;5.13;3.72;;;17.70;53.60;;;;;;4944027;29;20258;-75
2023/04/09 17:35:52;;;;;;;5.07;3.70;;;17.10;54.50;;;;;;4945204;29;20027;-73
2023/04/09 17:38:41;;;;;;;5.03;3.63;;;16.70;55.40;;;;;;4943622;29;20035;-72
2023/04/09 17:41:07;;;;;;;5.60;3.47;;;16.50;56.20;;;;;;4944872;29;20044;-73
2023/04/09 17:43:53;;;;;;;5.65;4.20;;;16.30;56.60;;;;;;4945140;29;20265;-72
2023/04/09 17:46:19;;;;;;;5.25;3.70;;;15.90;57.00;;;;;;4943367;29;20034;-74
2023/04/09 17:48:48;;;;;;;5.90;4.00;;;15.80;57.30;;;;;;4945063;29;20032;-73
2023/04/09 17:51:17;;;;;;;5.85;4.00;;;15.50;58.00;;;;;;4944232;29;20051;-73
2023/04/09 17:54:03;;;;;;;5.25;3.95;;;15.40;58.50;;;;;;4943788;29;20028;-74
2023/04/09 17:56:37;;;;;;;5.28;3.85;;;15.30;59.00;;;;;;4944463;29;20099;-74
2023/04/09 17:59:08;;;;;;;5.97;4.38;;;15.10;59.70;;;;;;4944739;29;20035;-74
2023/04/09 18:01:34;;;;;;;5.63;3.92;;;14.90;59.50;;;;;;4945201;29;20058;-74
2023/04/09 18:04:04;;;;;;;6.18;4.22;;;14.70;60.10;;;;;;4947270;29;20055;-73
2023/04/09 18:06:30;;;;;;;6.43;4.20;;;14.60;60.20;;;;;;4948026;29;20032;-74
2023/04/09 18:08:56;;;;;;;6.78;4.45;;;14.40;60.60;;;;;;4948910;29;20174;-72
2023/04/09 18:11:22;;;;;;;6.30;4.38;;;14.30;61.10;;;;;;4947804;29;20086;-73
2023/04/09 18:13:51;;;;;;;7.35;4.45;;;14.10;61.80;;;;;;4947552;29;20050;-73
2023/04/09 18:16:21;;;;;;;6.95;4.30;;;14.00;62.60;;;;;;4948059;29;20039;-72
2023/04/09 18:18:56;;;;;;;6.80;4.40;;;13.90;62.60;;;;;;4947426;29;20039;-72
2023/04/09 18:21:35;;;;;;;6.68;4.88;;;13.80;63.00;;;;;;4944614;29;20234;-72
2023/04/09 18:24:27;;;;;;;6.10;4.40;;;13.70;63.20;;;;;;4947685;29;20314;-74
2023/04/09 18:26:53;;;;;;;6.18;4.22;;;13.60;63.60;;;;;;4946486;29;20055;-73
2023/04/09 18:29:22;;;;;;;6.20;4.30;;;13.40;64.10;;;;;;4947722;29;20075;-74
2023/04/09 18:31:59;;;;;;;6.38;4.50;;;13.30;63.70;;;;;;4948188;29;20333;-72
2023/04/09 18:34:25;;;;;;;6.18;4.70;;;13.10;64.20;;;;;;4947497;29;20094;-72
2023/04/09 18:36:55;;;;;;;7.10;4.72;;;13.00;64.40;;;;;;4945382;29;20063;-72
2023/04/09 18:39:50;;;;;;;5.55;3.95;;;13.00;64.70;;;;;;4947684;29;20027;-72
2023/04/09 18:42:26;;;;;;;6.90;4.65;;;12.90;65.30;;;;;;4917925;29;20104;-73
2023/04/09 18:44:52;;;;;;;6.32;4.65;;;12.80;65.30;;;;;;4948305;29;20059;-73
2023/04/09 18:47:21;;;;;;;7.72;4.88;;;12.60;65.80;;;;;;4945268;29;20039;-72
2023/04/09 18:49:47;;;;;;;7.13;4.60;;;12.60;66.30;;;;;;4947744;29;20040;-73
2023/04/09 18:52:12;;;;;;;7.05;5.03;;;12.40;66.50;;;;;;4946624;29;20066;-72
2023/04/09 18:54:51;;;;;;;7.32;4.55;;;12.40;66.70;;;;;;4947520;29;20051;-73
2023/04/09 18:57:21;;;;;;;7.50;4.78;;;12.30;67.00;;;;;;4947489;29;20095;-72
2023/04/09 18:59:52;;;;;;;7.82;5.38;;;12.20;67.60;;;;;;4947770;29;20035;-74
2023/04/09 19:02:24;;;;;;;7.07;5.10;;;12.20;67.60;;;;;;4945037;29;20111;-73
2023/04/09 19:04:54;;;;;;;8.02;5.53;;;12.10;68.20;;;;;;4947524;29;20035;-74
2023/04/09 19:07:26;;;;;;;8.85;5.78;;;12.00;68.30;;;;;;4946350;29;20031;-72
2023/04/09 19:09:57;;;;;;;7.18;5.15;;;11.90;68.90;;;;;;4947568;29;20043;-74
2023/04/09 19:12:26;;;;;;;9.88;6.05;;;11.80;68.90;;;;;;4946965;29;20440;-73